createdAt,value
2022-12-28T00:01:51.467Z,2.38
2022-12-28T00:04:18.982Z,2.80
2022-12-28T00:06:47.413Z,2.70
2022-12-28T00:09:14.969Z,2.40
2022-12-28T00:11:42.518Z,2.40
2022-12-28T00:14:10.038Z,2.00
2022-12-28T00:16:39.422Z,2.83
2022-12-28T00:19:08.362Z,2.20
2022-12-28T00:21:35.894Z,2.28
2022-12-28T00:24:04.085Z,2.50
2022-12-28T00:26:32.635Z,2.20
2022-12-28T00:29:04.886Z,2.10
2022-12-28T00:31:36.277Z,2.35
2022-12-28T00:34:04.525Z,2.17
2022-12-28T00:37:07.653Z,2.50
2022-12-28T00:39:21.008Z,2.05
2022-12-28T00:41:48.774Z,2.10
2022-12-28T00:44:16.303Z,2.22
2022-12-28T00:46:44.261Z,2.33
2022-12-28T00:49:12.305Z,2.30
2022-12-28T00:51:39.848Z,2.70
2022-12-28T00:54:07.413Z,2.78
2022-12-28T00:56:34.948Z,2.40
2022-12-28T00:59:02.548Z,2.35
2022-12-28T01:01:30.344Z,2.60
2022-12-28T01:03:59.251Z,2.50
2022-12-28T01:06:27.357Z,2.30
2022-12-28T01:08:54.941Z,2.47
2022-12-28T01:11:27.089Z,2.28
2022-12-28T01:13:55.625Z,2.20
2022-12-28T01:16:34.598Z,1.80
2022-12-28T01:19:03.171Z,1.95
2022-12-28T01:21:32.183Z,2.10
2022-12-28T01:24:00.960Z,1.60
2022-12-28T01:26:28.993Z,1.77
2022-12-28T01:28:56.957Z,1.50
2022-12-28T01:31:24.514Z,1.75
2022-12-28T01:33:52.259Z,2.03
2022-12-28T01:36:20.978Z,1.88
2022-12-28T01:38:48.761Z,1.80
2022-12-28T01:41:18.043Z,1.77
2022-12-28T01:43:46.912Z,1.48
2022-12-28T01:49:23.042Z,1.50
2022-12-28T01:52:14.481Z,1.58
2022-12-28T01:55:05.267Z,1.63
2022-12-28T01:57:34.650Z,1.50
2022-12-28T02:00:04.768Z,1.67
2022-12-28T02:02:40.946Z,1.65
2022-12-28T02:05:08.875Z,1.30
2022-12-28T02:07:39.232Z,1.60
2022-12-28T02:10:43.966Z,1.58
2022-12-28T02:12:55.969Z,1.40
2022-12-28T02:15:23.645Z,1.42
2022-12-28T02:17:51.451Z,1.60
2022-12-28T02:20:19.397Z,1.65
2022-12-28T02:22:52.724Z,1.50
2022-12-28T02:25:23.370Z,1.48
2022-12-28T02:28:01.912Z,1.40
2022-12-28T02:30:33.830Z,0.98
2022-12-28T02:33:24.414Z,1.30
2022-12-28T02:36:00.074Z,1.17
2022-12-28T02:38:32.374Z,1.33
2022-12-28T02:41:09.312Z,1.27
2022-12-28T02:43:36.984Z,1.40
2022-12-28T02:46:31.956Z,1.02
2022-12-28T02:49:34.607Z,1.20
2022-12-28T02:52:06.942Z,1.30
2022-12-28T02:55:02.104Z,1.00
2022-12-28T02:57:38.982Z,1.15
2022-12-28T03:00:09.435Z,1.10
2022-12-28T03:02:37.045Z,1.30
2022-12-28T03:05:10.331Z,1.30
2022-12-28T03:08:20.079Z,1.23
2022-12-28T03:10:57.004Z,1.30
2022-12-28T03:13:44.326Z,1.10
2022-12-28T03:16:19.631Z,1.30
2022-12-28T03:19:06.843Z,1.20
2022-12-28T03:21:55.323Z,1.00
2022-12-28T03:24:42.273Z,1.30
2022-12-28T03:27:32.047Z,1.00
2022-12-28T03:30:29.531Z,1.08
2022-12-28T03:35:46.454Z,1.20
2022-12-28T03:38:27.152Z,1.00
2022-12-28T03:41:15.299Z,1.23
2022-12-28T03:43:48.911Z,0.90
2022-12-28T03:46:23.310Z,0.90
2022-12-28T03:48:51.926Z,1.05
2022-12-28T03:51:22.352Z,0.88
2022-12-28T03:53:50.246Z,0.90
2022-12-28T03:56:22.933Z,1.05
2022-12-28T03:58:52.772Z,0.90
2022-12-28T04:01:21.648Z,1.17
2022-12-28T04:03:49.607Z,0.90
2022-12-28T04:06:18.401Z,0.80
2022-12-28T04:08:46.762Z,1.08
2022-12-28T04:11:14.893Z,1.00
2022-12-28T04:13:45.652Z,1.10
2022-12-28T04:16:15.402Z,0.90
2022-12-28T04:18:44.302Z,1.02
2022-12-28T04:21:13.125Z,1.10
2022-12-28T04:23:43.169Z,0.88
2022-12-28T04:26:17.983Z,1.08
2022-12-28T04:28:47.173Z,1.10
2022-12-28T04:31:37.601Z,1.00
2022-12-28T04:34:09.270Z,1.20
2022-12-28T04:36:40.649Z,1.20
2022-12-28T04:39:12.520Z,1.05
2022-12-28T04:41:40.219Z,0.85
2022-12-28T04:44:07.740Z,1.00
2022-12-28T04:46:35.447Z,1.10
2022-12-28T04:49:03.098Z,1.10
2022-12-28T04:51:30.927Z,0.82
2022-12-28T04:53:58.797Z,1.00
2022-12-28T04:56:27.159Z,1.08
2022-12-28T04:58:59.362Z,0.95
2022-12-28T05:01:27.113Z,1.20
2022-12-28T05:03:57.987Z,0.90
2022-12-28T05:06:27.577Z,1.10
2022-12-28T05:08:55.672Z,1.00
2022-12-28T05:11:24.386Z,0.85
2022-12-28T05:13:52.010Z,1.00
2022-12-28T05:16:20.597Z,1.00
2022-12-28T05:18:48.646Z,1.02
2022-12-28T05:21:17.450Z,0.90
2022-12-28T05:23:45.304Z,0.90
2022-12-28T05:26:14.115Z,1.15
2022-12-28T05:28:41.870Z,0.90
2022-12-28T05:31:11.619Z,1.10
2022-12-28T05:33:40.070Z,0.90
2022-12-28T05:36:08.852Z,0.90
2022-12-28T05:38:36.376Z,1.02
2022-12-28T05:41:07.215Z,1.00
2022-12-28T05:43:35.013Z,0.90
2022-12-28T05:46:06.700Z,0.98
2022-12-28T05:48:34.691Z,0.80
2022-12-28T05:51:03.247Z,0.75
2022-12-28T05:53:31.536Z,0.90
2022-12-28T05:56:09.523Z,0.80
2022-12-28T05:58:41.448Z,0.70
2022-12-28T06:01:10.288Z,0.90
2022-12-28T06:03:38.670Z,1.05
2022-12-28T06:06:10.290Z,0.88
2022-12-28T06:08:38.389Z,0.90
2022-12-28T06:11:07.895Z,1.10
2022-12-28T06:13:35.850Z,1.20
2022-12-28T06:16:10.506Z,0.90
2022-12-28T06:18:38.088Z,1.27
2022-12-28T06:21:06.911Z,1.20
2022-12-28T06:23:34.585Z,1.10
2022-12-28T06:26:03.142Z,1.00
2022-12-28T06:28:30.786Z,1.00
2022-12-28T06:31:05.344Z,1.20
2022-12-28T06:33:33.281Z,1.25
2022-12-28T06:36:01.027Z,1.00
2022-12-28T06:38:31.125Z,1.00
2022-12-28T06:41:14.068Z,0.90
2022-12-28T06:43:42.983Z,0.90
2022-12-28T06:46:11.091Z,1.05
2022-12-28T06:48:38.693Z,0.80
2022-12-28T06:51:07.706Z,1.00
2022-12-28T06:53:36.622Z,0.90
2022-12-28T06:56:27.413Z,0.95
2022-12-28T06:59:02.397Z,0.98
2022-12-28T07:01:32.367Z,0.90
2022-12-28T07:04:00.653Z,0.90
2022-12-28T07:06:29.485Z,0.70
2022-12-28T07:09:00.833Z,0.90
2022-12-28T07:11:29.001Z,1.10
2022-12-28T07:13:57.106Z,1.00
2022-12-28T07:16:25.317Z,1.05
2022-12-28T07:18:53.182Z,1.10
2022-12-28T07:21:24.655Z,0.85
2022-12-28T07:23:53.179Z,1.15
2022-12-28T07:26:21.967Z,0.80
2022-12-28T07:28:50.647Z,1.02
2022-12-28T07:31:19.492Z,1.08
2022-12-28T07:33:47.875Z,1.08
2022-12-28T07:36:17.244Z,1.00
2022-12-28T07:38:44.871Z,1.33
2022-12-28T07:41:13.673Z,0.93
2022-12-28T07:43:41.299Z,1.27
2022-12-28T07:46:10.490Z,1.35
2022-12-28T07:48:38.551Z,0.90
2022-12-28T07:51:07.817Z,1.40
2022-12-28T07:53:35.504Z,1.13
2022-12-28T07:56:03.110Z,1.00
2022-12-28T07:58:30.667Z,1.00
2022-12-28T08:01:05.361Z,1.20
2022-12-28T08:03:34.096Z,1.17
2022-12-28T08:06:12.254Z,1.02
2022-12-28T08:08:40.921Z,1.17
2022-12-28T08:11:10.603Z,1.17
2022-12-28T08:13:39.154Z,1.00
2022-12-28T08:16:06.988Z,1.00
2022-12-28T08:18:34.992Z,1.00
2022-12-28T08:21:07.234Z,1.00
2022-12-28T08:23:34.815Z,0.90
2022-12-28T08:26:22.604Z,0.80
2022-12-28T08:28:51.137Z,0.90
2022-12-28T08:31:20.932Z,1.10
2022-12-28T08:33:48.940Z,1.05
2022-12-28T08:36:16.716Z,0.90
2022-12-28T08:38:44.778Z,1.13
2022-12-28T08:41:17.228Z,1.00
2022-12-28T08:43:44.867Z,0.88
2022-12-28T08:46:16.972Z,1.02
2022-12-28T08:48:45.351Z,1.20
2022-12-28T08:51:14.350Z,1.20
2022-12-28T08:53:42.106Z,1.10
2022-12-28T08:56:14.233Z,1.13
2022-12-28T08:58:42.779Z,1.25
2022-12-28T09:01:11.649Z,0.93
2022-12-28T09:03:40.562Z,1.20
2022-12-28T09:06:09.622Z,1.10
2022-12-28T09:08:37.646Z,0.80
2022-12-28T09:11:06.335Z,1.00
2022-12-28T09:13:34.412Z,0.80
2022-12-28T09:16:04.786Z,0.98
2022-12-28T09:18:33.819Z,1.00
2022-12-28T09:21:08.563Z,1.00
2022-12-28T09:23:36.350Z,0.90
2022-12-28T09:26:11.824Z,1.15
2022-12-28T09:28:44.610Z,0.90
2022-12-28T09:31:12.148Z,0.90
2022-12-28T09:34:34.289Z,1.00
2022-12-28T09:36:46.110Z,1.00
2022-12-28T09:39:16.904Z,0.95
2022-12-28T09:41:50.586Z,0.93
2022-12-28T09:44:27.200Z,1.02
2022-12-28T09:47:00.800Z,1.20
2022-12-28T09:49:35.791Z,0.90
2022-12-28T09:52:15.686Z,1.27
2022-12-28T09:54:43.262Z,1.10
2022-12-28T09:57:14.425Z,1.08
2022-12-28T09:59:42.142Z,0.90
2022-12-28T10:02:18.789Z,1.08
2022-12-28T10:04:49.488Z,0.88
2022-12-28T10:07:17.239Z,1.17
2022-12-28T10:09:45.170Z,1.00
2022-12-28T10:12:20.572Z,0.98
2022-12-28T10:14:48.481Z,0.85
2022-12-28T10:17:16.919Z,1.10
2022-12-28T10:19:48.423Z,0.73
2022-12-28T10:22:17.915Z,0.93
2022-12-28T10:24:45.924Z,1.15
2022-12-28T10:27:24.150Z,0.93
2022-12-28T10:29:52.697Z,0.88
2022-12-28T10:32:20.635Z,0.80
2022-12-28T10:34:56.709Z,1.00
2022-12-28T10:37:24.527Z,1.02
2022-12-28T10:39:53.576Z,1.00
2022-12-28T10:42:41.128Z,1.08
2022-12-28T10:45:17.908Z,0.95
2022-12-28T10:47:49.075Z,1.10
2022-12-28T10:53:42.663Z,1.00
2022-12-28T10:56:10.183Z,1.10
2022-12-28T10:58:37.700Z,1.20
2022-12-28T11:01:05.468Z,1.00
2022-12-28T11:03:21.674Z,0.90
2022-12-28T11:03:36.737Z,1.00
2022-12-28T11:06:15.111Z,1.00
2022-12-28T11:08:43.502Z,1.10
2022-12-28T11:11:32.797Z,0.80
2022-12-28T11:14:03.421Z,0.95
2022-12-28T11:16:33.981Z,0.90
2022-12-28T11:19:01.574Z,0.93
2022-12-28T11:21:29.111Z,1.00
2022-12-28T11:23:56.640Z,0.85
2022-12-28T11:26:24.201Z,0.90
2022-12-28T11:28:52.916Z,0.73
2022-12-28T11:31:23.795Z,0.73
2022-12-28T11:33:53.354Z,0.70
2022-12-28T11:36:26.382Z,1.13
2022-12-28T11:38:56.164Z,0.63
2022-12-28T11:41:33.646Z,0.80
2022-12-28T11:44:04.437Z,0.65
2022-12-28T11:46:31.961Z,0.60
2022-12-28T11:49:06.671Z,0.80
2022-12-28T11:51:35.206Z,0.60
2022-12-28T11:54:03.834Z,0.68
2022-12-28T11:56:46.654Z,0.82
2022-12-28T11:59:25.243Z,0.70
2022-12-28T12:02:00.322Z,0.55
2022-12-28T12:04:29.742Z,0.70
2022-12-28T12:07:03.264Z,0.32
2022-12-28T12:09:38.389Z,0.63
2022-12-28T12:12:18.044Z,0.82
2022-12-28T12:14:48.922Z,0.60
2022-12-28T12:17:28.383Z,0.70
2022-12-28T12:19:58.078Z,0.80
2022-12-28T12:22:28.400Z,0.70
2022-12-28T12:24:58.738Z,0.65
2022-12-28T12:27:36.575Z,0.80
2022-12-28T12:30:06.227Z,0.65
2022-12-28T12:32:48.071Z,0.70
2022-12-28T12:35:20.954Z,0.50
2022-12-28T12:37:48.444Z,0.70
2022-12-28T12:40:34.427Z,0.80
2022-12-28T12:43:20.905Z,0.77
2022-12-28T12:45:48.473Z,0.73
2022-12-28T12:48:25.093Z,0.80
2022-12-28T12:50:56.765Z,0.98
2022-12-28T12:53:36.785Z,0.45
2022-12-28T12:56:04.356Z,0.80
2022-12-28T12:58:37.531Z,0.70
2022-12-28T13:01:05.136Z,0.70
2022-12-28T13:03:49.869Z,0.80
2022-12-28T13:06:18.655Z,0.65
2022-12-28T13:08:54.407Z,0.90
2022-12-28T13:11:22.319Z,0.80
2022-12-28T13:13:50.981Z,0.88
2022-12-28T13:16:23.179Z,0.70
2022-12-28T13:18:58.161Z,0.60
2022-12-28T13:21:30.433Z,0.52
2022-12-28T13:23:58.013Z,0.50
2022-12-28T13:26:27.941Z,0.50
2022-12-28T13:29:03.043Z,0.52
2022-12-28T13:31:30.563Z,0.80
2022-12-28T13:34:02.647Z,0.73
2022-12-28T13:36:30.214Z,0.63
2022-12-28T13:39:02.726Z,0.50
2022-12-28T13:41:31.201Z,0.60
2022-12-28T13:44:22.012Z,0.50
2022-12-28T13:46:52.345Z,0.38
2022-12-28T13:49:20.600Z,0.60
2022-12-28T13:51:53.139Z,0.70
2022-12-28T13:54:24.881Z,0.60
2022-12-28T13:57:03.357Z,0.50
2022-12-28T13:59:41.803Z,0.70
2022-12-28T14:02:13.820Z,0.70
2022-12-28T14:04:52.170Z,0.93
2022-12-28T14:07:22.705Z,0.75
2022-12-28T14:09:50.743Z,0.70
2022-12-28T14:12:18.392Z,0.55
2022-12-28T14:14:47.943Z,0.77
2022-12-28T14:17:15.820Z,0.90
2022-12-28T14:19:46.189Z,0.60
2022-12-28T14:22:31.425Z,0.70
2022-12-28T14:24:59.688Z,0.75
2022-12-28T14:27:27.401Z,0.60
2022-12-28T14:29:56.492Z,0.60
2022-12-28T14:32:24.020Z,0.88
2022-12-28T14:34:56.650Z,0.80
2022-12-28T14:37:31.696Z,0.80
2022-12-28T14:40:01.012Z,0.80
2022-12-28T14:42:29.795Z,0.50
2022-12-28T14:44:59.034Z,0.70
2022-12-28T14:47:35.677Z,1.33
2022-12-28T14:50:21.825Z,0.80
2022-12-28T14:52:50.620Z,0.90
2022-12-28T14:55:22.392Z,1.05
2022-12-28T14:57:51.769Z,0.70
2022-12-28T15:00:19.485Z,0.82
2022-12-28T15:02:47.257Z,1.00
2022-12-28T15:05:34.019Z,1.35
2022-12-28T15:08:01.597Z,0.80
2022-12-28T15:10:29.433Z,1.00
2022-12-28T15:12:56.993Z,0.90
2022-12-28T15:15:24.535Z,0.90
2022-12-28T15:17:52.062Z,1.05
2022-12-28T15:20:19.619Z,0.70
2022-12-28T15:22:49.023Z,0.93
2022-12-28T15:25:16.733Z,1.20
2022-12-28T15:27:44.278Z,1.08
2022-12-28T15:30:18.784Z,0.80
2022-12-28T15:32:48.078Z,1.00
2022-12-28T15:35:15.833Z,1.10
2022-12-28T15:37:43.381Z,1.40
2022-12-28T15:40:11.317Z,1.30
2022-12-28T15:42:40.874Z,1.23
2022-12-28T15:45:09.048Z,1.45
2022-12-28T15:47:36.699Z,1.58
2022-12-28T15:50:04.805Z,1.70
2022-12-28T15:52:32.951Z,1.50
2022-12-28T15:55:00.479Z,1.40
2022-12-28T15:57:28.136Z,1.65
2022-12-28T15:59:55.955Z,1.33
2022-12-28T16:02:23.730Z,1.83
2022-12-28T16:04:51.467Z,1.73
2022-12-28T16:07:19.252Z,1.80
2022-12-28T16:09:47.046Z,1.60
2022-12-28T16:12:17.282Z,1.60
2022-12-28T16:14:46.602Z,1.52
2022-12-28T16:17:14.467Z,1.77
2022-12-28T16:19:42.461Z,1.88
2022-12-28T16:22:09.998Z,1.50
2022-12-28T16:24:37.599Z,1.50
2022-12-28T16:27:05.200Z,1.70
2022-12-28T16:29:32.946Z,1.58
2022-12-28T16:32:01.405Z,1.80
2022-12-28T16:34:29.605Z,1.75
2022-12-28T16:36:59.235Z,1.63
2022-12-28T16:39:30.332Z,1.48
2022-12-28T16:41:58.642Z,1.75
2022-12-28T16:44:27.687Z,1.90
2022-12-28T16:46:58.117Z,1.90
2022-12-28T16:49:26.235Z,2.28
2022-12-28T16:51:53.743Z,2.00
2022-12-28T16:54:22.350Z,2.08
2022-12-28T16:56:50.924Z,1.90
2022-12-28T16:59:20.129Z,2.20
2022-12-28T17:01:48.193Z,2.20
2022-12-28T17:04:15.975Z,2.05
2022-12-28T17:06:44.404Z,2.45
2022-12-28T17:09:13.383Z,2.38
2022-12-28T17:11:40.986Z,2.47
2022-12-28T17:14:10.599Z,2.58
2022-12-28T17:16:38.662Z,2.00
2022-12-28T17:19:06.321Z,2.25
2022-12-28T17:21:34.196Z,2.53
2022-12-28T17:24:02.050Z,2.90
2022-12-28T17:26:29.581Z,2.47
2022-12-28T17:28:57.306Z,2.95
2022-12-28T17:31:25.101Z,3.00
2022-12-28T17:33:54.077Z,2.50
2022-12-28T17:36:22.230Z,2.03
2022-12-28T17:38:50.041Z,2.10
2022-12-28T17:41:19.829Z,2.20
2022-12-28T17:43:50.893Z,2.17
2022-12-28T17:46:19.206Z,2.28
2022-12-28T17:48:46.894Z,2.15
2022-12-28T17:51:14.536Z,2.20
2022-12-28T17:53:42.112Z,2.15
2022-12-28T17:56:11.104Z,2.20
2022-12-28T17:58:38.886Z,1.80
2022-12-28T18:01:06.523Z,2.10
2022-12-28T18:03:34.704Z,2.40
2022-12-28T18:06:02.621Z,2.47
2022-12-28T18:08:30.184Z,2.55
2022-12-28T18:10:57.776Z,2.53
2022-12-28T18:13:25.393Z,2.20
2022-12-28T18:15:53.527Z,2.22
2022-12-28T18:18:21.135Z,2.13
2022-12-28T18:21:02.120Z,2.30
2022-12-28T18:23:30.128Z,2.67
2022-12-28T18:26:04.428Z,2.42
2022-12-28T18:28:32.489Z,2.47
2022-12-28T18:31:02.494Z,2.88
2022-12-28T18:33:31.067Z,2.80
2022-12-28T18:35:59.433Z,2.70
2022-12-28T18:38:28.158Z,2.22
2022-12-28T18:40:57.043Z,2.42
2022-12-28T18:43:24.977Z,2.53
2022-12-28T18:45:56.540Z,2.05
2022-12-28T18:48:24.842Z,2.00
2022-12-28T18:51:12.859Z,2.17
2022-12-28T18:53:40.813Z,2.40
2022-12-28T18:56:10.192Z,2.08
2022-12-28T18:58:38.348Z,2.70
2022-12-28T19:01:06.817Z,2.33
2022-12-28T19:03:35.085Z,2.25
2022-12-28T19:06:04.030Z,2.55
2022-12-28T19:08:32.146Z,2.60
2022-12-28T19:11:00.116Z,2.95
2022-12-28T19:13:28.258Z,3.05
2022-12-28T19:15:55.832Z,2.72
2022-12-28T19:18:23.416Z,3.42
2022-12-28T19:20:55.517Z,9.20
2022-12-28T19:23:23.065Z,4.13
2022-12-28T19:25:50.617Z,6.07
2022-12-28T19:28:18.097Z,4.20
2022-12-28T19:30:45.762Z,5.25
2022-12-28T19:33:13.338Z,3.65
2022-12-28T19:35:41.083Z,3.08
2022-12-28T19:38:08.623Z,3.33
2022-12-28T19:40:36.131Z,2.58
2022-12-28T19:43:03.947Z,9.05
2022-12-28T19:45:31.470Z,5.70
2022-12-28T19:47:59.031Z,7.55
2022-12-28T19:50:26.579Z,5.20
2022-12-28T19:52:54.493Z,5.75
2022-12-28T19:55:22.039Z,4.82
2022-12-28T19:57:49.611Z,3.80
2022-12-28T20:00:18.321Z,3.90
2022-12-28T20:02:46.052Z,3.17
2022-12-28T20:05:13.703Z,3.50
2022-12-28T20:07:41.223Z,3.53
2022-12-28T20:10:08.866Z,3.30
2022-12-28T20:12:36.377Z,4.03
2022-12-28T20:15:03.960Z,6.38
2022-12-28T20:17:31.594Z,5.30
2022-12-28T20:19:59.097Z,3.67
2022-12-28T20:22:26.649Z,3.30
2022-12-28T20:24:54.204Z,4.68
2022-12-28T20:27:23.281Z,3.35
2022-12-28T20:29:50.866Z,5.47
2022-12-28T20:32:18.405Z,26.55
2022-12-28T20:34:45.965Z,9.70
2022-12-28T20:37:13.477Z,8.77
2022-12-28T20:39:40.976Z,5.72
2022-12-28T20:42:27.024Z,4.50
2022-12-28T20:44:57.504Z,2.95
2022-12-28T20:47:25.306Z,3.50
2022-12-28T20:49:52.860Z,3.33
2022-12-28T20:52:20.385Z,3.20
2022-12-28T20:54:47.887Z,11.85
2022-12-28T20:57:15.476Z,15.15
2022-12-28T20:59:42.985Z,5.00
2022-12-28T21:02:10.864Z,3.88
2022-12-28T21:04:38.471Z,2.75
2022-12-28T21:07:06.067Z,6.82
2022-12-28T21:09:33.575Z,5.05
2022-12-28T21:12:01.183Z,3.85
2022-12-28T21:14:28.689Z,3.67
2022-12-28T21:16:56.258Z,8.40
2022-12-28T21:19:23.786Z,6.78
2022-12-28T21:21:51.348Z,5.18
2022-12-28T21:24:18.960Z,3.60
2022-12-28T21:26:46.487Z,3.17
2022-12-28T21:29:14.015Z,11.23
2022-12-28T21:31:41.673Z,4.20
2022-12-28T21:34:09.308Z,3.92
2022-12-28T21:36:36.914Z,4.75
2022-12-28T21:39:04.545Z,4.15
2022-12-28T21:41:50.514Z,4.38
2022-12-28T21:44:22.448Z,7.25
2022-12-28T21:46:51.299Z,5.25
2022-12-28T21:49:19.671Z,4.80
2022-12-28T21:51:48.071Z,4.32
2022-12-28T21:54:17.477Z,7.35
2022-12-28T21:56:46.364Z,3.40
2022-12-28T21:59:14.252Z,5.07
2022-12-28T22:02:01.284Z,4.65
2022-12-28T22:05:03.189Z,3.72
2022-12-28T22:07:32.074Z,3.80
2022-12-28T22:10:18.225Z,3.60
2022-12-28T22:12:45.786Z,4.03
2022-12-28T22:15:33.479Z,4.72
2022-12-28T22:18:05.564Z,2.63
2022-12-28T22:20:34.371Z,2.60
2022-12-28T22:23:02.498Z,4.50
2022-12-28T22:25:30.714Z,4.40
2022-12-28T22:27:58.484Z,6.40
2022-12-28T22:30:26.274Z,5.18
2022-12-28T22:32:53.888Z,3.85
2022-12-28T22:35:21.890Z,3.00
2022-12-28T22:37:49.663Z,2.65
2022-12-28T22:40:17.354Z,2.60
2022-12-28T22:42:46.044Z,2.30
2022-12-28T22:45:14.672Z,2.15
2022-12-28T22:47:42.576Z,2.50
2022-12-28T22:50:11.695Z,2.03
2022-12-28T22:52:39.229Z,1.83
2022-12-28T22:55:06.887Z,1.80
2022-12-28T22:57:35.173Z,1.35
2022-12-28T23:00:03.059Z,1.70
2022-12-28T23:02:31.115Z,2.00
2022-12-28T23:04:59.799Z,2.28
2022-12-28T23:07:27.391Z,1.70
2022-12-28T23:09:59.499Z,1.80
2022-12-28T23:12:27.014Z,1.70
2022-12-28T23:15:13.430Z,2.15
2022-12-28T23:17:40.961Z,2.30
2022-12-28T23:20:28.836Z,2.05
2022-12-28T23:23:15.118Z,1.48
2022-12-28T23:26:01.597Z,1.40
2022-12-28T23:28:29.256Z,1.40
2022-12-28T23:30:57.041Z,1.17
2022-12-28T23:33:24.698Z,1.40
2022-12-28T23:35:52.229Z,1.40
2022-12-28T23:38:19.794Z,1.17
2022-12-28T23:41:07.393Z,1.08
2022-12-28T23:43:34.981Z,1.20
2022-12-28T23:46:05.731Z,1.60
2022-12-28T23:48:33.399Z,1.70
2022-12-28T23:51:07.935Z,2.00
2022-12-28T23:53:35.636Z,1.40
2022-12-28T23:56:03.260Z,1.58
2022-12-28T23:58:30.787Z,1.23
